Blue Thunder Heliport

0WN6 · Waszyngton, Stany Zjednoczone

Historia METAR 0WN6 · Blue Thunder Heliport

Poniżej widzisz METAR-y z ostatnich kilku dni. Wybierz rok, aby przeglądać starsze METAR-y, począwszy od roku 2007.

19 kwietnia 2024

Czas Kod Pogoda Temp. Widoczność Sufit Wiatr METAR/SPECI
13:53
V
18 °C 10 mi - 030° 030° 10 kt METAR KBLI 192053Z 03010KT 10SM CLR 18/M06 A3016 RMK AO2 SLP220 T01781061 58022
12:53
V
17 °C 10 mi - 020° 020° 7 - 15 kt METAR KBLI 191953Z 02007G15KT 340V060 10SM CLR 17/M05 A3018 RMK AO2 SLP227 T01721050
11:53
V
16 °C 10 mi - 020° 020° 10 kt METAR KBLI 191853Z 02010KT 10SM CLR 16/M04 A3021 RMK AO2 SLP235 T01611039
10:53
V
15 °C 10 mi - 010° 010° 7 kt METAR KBLI 191753Z 01007KT 350V050 10SM CLR 15/M02 A3023 RMK AO2 SLP242 T01501022 10150 20000 58007
09:53
V
13 °C 10 mi - 360° 360° 7 kt METAR KBLI 191653Z 36007KT 10SM CLR 13/M02 A3023 RMK AO2 SLP244 T01331017
08:53
V
10 °C 10 mi - 020° 020° 4 kt METAR KBLI 191553Z 02004KT 10SM CLR 10/M02 A3024 RMK AO2 SLP249 T01001017
07:53
V
7 °C 10 mi - 360° 360° 0 kt METAR KBLI 191453Z 00000KT 10SM CLR 07/M02 A3025 RMK AO2 SLP250 T00671022 53007
06:53
V
3 °C 10 mi - 360° 360° 0 kt METAR KBLI 191353Z 00000KT 10SM CLR 03/M03 A3024 RMK AO2 SLP249 T00331033
05:53
V
1 °C 10 mi - 360° 360° 0 kt METAR KBLI 191253Z AUTO 00000KT 10SM CLR 01/M03 A3023 RMK AO2 SLP244 T00111033
04:53
V
2 °C 10 mi - 360° 360° 0 kt METAR KBLI 191153Z AUTO 00000KT 10SM CLR 02/M02 A3022 RMK AO2 SLP243 T00221022 10078 20006 53003
03:53
V
3 °C 10 mi - 360° 360° 0 kt METAR KBLI 191053Z AUTO 00000KT 10SM CLR 03/M03 A3022 RMK AO2 SLP240 T00331033
02:53
V
3 °C 10 mi - 010° 010° 4 kt METAR KBLI 190953Z AUTO 01004KT 10SM CLR 03/M03 A3021 RMK AO2 SLP238 T00331033
01:53
V
6 °C 10 mi - 360° 360° 0 kt METAR KBLI 190853Z AUTO 00000KT 10SM CLR 06/M04 A3022 RMK AO2 SLP239 T00611039 55001
00:53
V
7 °C 10 mi - 020° 020° 6 kt METAR KBLI 190753Z AUTO 02006KT 10SM CLR 07/M04 A3021 RMK AO2 SLP239 T00671044 401781006

18 kwietnia 2024

Czas Kod Pogoda Temp. Widoczność Sufit Wiatr METAR/SPECI
23:53
V
7 °C 10 mi - 030° 030° 5 kt METAR KBLI 190653Z AUTO 03005KT 10SM CLR 07/M04 A3022 RMK AO2 SLP239 T00721039
22:53
V
7 °C 10 mi - 020° 020° 4 kt METAR KBLI 190553Z AUTO 02004KT 10SM CLR 07/M03 A3022 RMK AO2 SLP241 T00721028 10172 20067 52002
21:53
V
8 °C 10 mi - 350° 350° 4 kt METAR KBLI 190453Z 35004KT 10SM CLR 08/M02 A3022 RMK AO2 SLP240 T00831022
20:53
V
11 °C 10 mi - 340° 340° 5 kt METAR KBLI 190353Z 34005KT 10SM CLR 11/M04 A3022 RMK AO2 SLP240 T01061039
19:53
V
13 °C 10 mi - 300° 300° 5 kt METAR KBLI 190253Z 30005KT 10SM CLR 13/M03 A3022 RMK AO2 SLP240 T01281033 56006
18:53
V
15 °C 10 mi - 290° 290° 5 kt METAR KBLI 190153Z 29005KT 10SM CLR 15/M04 A3022 RMK AO2 SLP242 T01501039
17:53
V
16 °C 10 mi - 300° 300° 8 - 15 kt METAR KBLI 190053Z 30008G15KT 10SM CLR 16/M03 A3022 RMK AO2 SLP243 T01561028
16:53
V
17 °C 10 mi - 320° 320° 11 kt METAR KBLI 182353Z 32011KT 10SM CLR 17/M04 A3023 RMK AO2 SLP245 T01671044 10178 20139 58009
15:53
V
16 °C 10 mi - 280° 280° 10 - 19 kt METAR KBLI 182253Z 28010G19KT 10SM CLR 16/M03 A3025 RMK AO2 SLP251 T01611028
14:53
V
17 °C 10 mi - 040° 040° 6 - 19 kt METAR KBLI 182153Z 04006G19KT 10SM CLR 17/M06 A3025 RMK AO2 SLP250 T01721061
13:53
V
17 °C 10 mi - 360° 360° 0 kt METAR KBLI 182053Z 10SM CLR 17/M04 A3026 RMK AO2 SLP254 T01721044 56021
12:53
V
17 °C 10 mi - 020° 020° 7 - 16 kt METAR KBLI 181953Z 02007G16KT 10SM CLR 17/M04 A3028 RMK AO2 SLP261 T01671039
11:53
V
15 °C 10 mi - 040° 040° 11 - 24 kt METAR KBLI 181853Z 04011G24KT 10SM CLR 15/M04 A3030 RMK AO2 PK WND 04027/1821 SLP268 T01501039
10:53
V
14 °C 10 mi - 020° 020° 12 - 29 kt METAR KBLI 181753Z 02012G29KT 10SM CLR 14/M03 A3032 RMK AO2 PK WND 02029/1749 SLP276 T01391033 10139 21006 56011
09:53
V
12 °C 10 mi - 030° 030° 11 - 20 kt METAR KBLI 181653Z 03011G20KT 10SM CLR 12/M01 A3033 RMK AO2 SLP278 T01171011
08:53
V
9 °C 10 mi - 010° 010° 9 - 16 kt METAR KBLI 181553Z 01009G16KT 10SM CLR 09/M01 A3035 RMK AO2 SLP284 T00891006
07:53
V
6 °C 10 mi - 010° 010° 8 kt METAR KBLI 181453Z 01008KT 10SM CLR 06/00 A3035 RMK AO2 SLP287 T00610000 53001
06:53
V
3 °C 10 mi - 010° 010° 7 kt METAR KBLI 181353Z 01007KT 10SM CLR 03/M02 A3035 RMK AO2 SLP286 T00281017
05:53
V
2 °C 10 mi - 040° 040° 5 kt METAR KBLI 181253Z AUTO 04005KT 10SM CLR 02/M02 A3035 RMK AO2 SLP284 T00171022
04:53
V
1 °C 10 mi - 360° 360° 0 kt METAR KBLI 181153Z AUTO 00000KT 10SM CLR 01/M01 A3035 RMK AO2 SLP286 T00061011 10050 21006 58007
03:53
V
1 °C 10 mi - 360° 360° 0 kt METAR KBLI 181053Z AUTO 00000KT 10SM CLR 01/M02 A3036 RMK AO2 SLP289 T00111017
02:53
V
3 °C 10 mi - 020° 020° 3 kt METAR KBLI 180953Z AUTO 02003KT 10SM CLR 03/M02 A3037 RMK AO2 SLP291 T00331017
01:53
V
4 °C 10 mi - 360° 360° 3 kt METAR KBLI 180853Z AUTO 36003KT 10SM CLR 04/M02 A3037 RMK AO2 SLP293 T00391017 58005
00:53
V
2 °C 10 mi - 360° 360° 0 kt METAR KBLI 180753Z AUTO 00000KT 10SM CLR 02/M01 A3038 RMK AO2 SLP296 T00221011 401440000

17 kwietnia 2024

Czas Kod Pogoda Temp. Widoczność Sufit Wiatr METAR/SPECI
23:53
V
4 °C 10 mi - 360° 360° 0 kt METAR KBLI 180653Z AUTO 00000KT 10SM CLR 04/M01 A3039 RMK AO2 SLP298 T00391011
22:53
V
5 °C 10 mi - 360° 360° 0 kt METAR KBLI 180553Z AUTO 00000KT 10SM CLR 05/M02 A3039 RMK AO2 SLP299 T00501017 10139 20033 50001
21:53
V
5 °C 10 mi - 360° 360° 0 kt METAR KBLI 180453Z 00000KT 10SM CLR 05/M02 A3039 RMK AO2 SLP301 T00501017
20:53
V
7 °C 10 mi - 360° 360° 0 kt METAR KBLI 180353Z 00000KT 10SM CLR 07/M02 A3039 RMK AO2 SLP299 T00671017
19:53
V
11 °C 10 mi - 360° 360° 0 kt METAR KBLI 180253Z 00000KT 10SM CLR 11/M04 A3039 RMK AO2 SLP298 T01061044 56010
18:53
V
12 °C 10 mi - 300° 300° 6 kt METAR KBLI 180153Z 30006KT 10SM CLR 12/M06 A3039 RMK AO2 SLP299 T01221056
17:53
V
13 °C 10 mi - 280° 280° 8 kt METAR KBLI 180053Z 28008KT 10SM CLR 13/M06 A3041 RMK AO2 SLP305 T01331061
16:53
V
13 °C 10 mi - 310° 310° 8 - 15 kt METAR KBLI 172353Z 31008G15KT 10SM CLR 13/M05 A3042 RMK AO2 SLP308 T01331050 10144 20106 58010
15:53
V
13 °C 10 mi - 280° 280° 7 - 17 kt METAR KBLI 172253Z 28007G17KT 240V320 10SM CLR 13/M03 A3043 RMK AO2 SLP312 T01331028
14:53
V
13 °C 10 mi - 310° 310° 9 - 17 kt METAR KBLI 172153Z 31009G17KT 10SM CLR 13/01 A3044 RMK AO2 SLP315 T01330006
13:53
V
14 °C 10 mi - 360° 360° 7 kt METAR KBLI 172053Z 36007KT 10SM CLR 14/M02 A3045 RMK AO2 SLP318 T01441017 58013
12:53
V
13 °C 10 mi - 330° 330° 9 - 16 kt METAR KBLI 171953Z 33009G16KT 10SM CLR 13/M03 A3046 RMK AO2 SLP323 T01331033
11:53
V
12 °C 10 mi - 010° 010° 6 - 17 kt METAR KBLI 171853Z 01006G17KT 10SM CLR 12/M02 A3048 RMK AO2 SLP328 T01221017
10:53
V
11 °C 10 mi - 040° 040° 9 kt METAR KBLI 171753Z 04009KT 10SM CLR 11/02 A3048 RMK AO2 SLP331 T01110017 10111 20000 50006
09:53
V
9 °C 10 mi - 030° 030° 10 kt METAR KBLI 171653Z 03010KT 10SM CLR 09/02 A3049 RMK AO2 SLP332 T00890017
08:53
V
7 °C 10 mi - 040° 040° 10 kt METAR KBLI 171553Z 04010KT 10SM CLR 07/02 A3047 RMK AO2 SLP327 T00670017
07:53
V
4 °C 10 mi - 020° 020° 5 kt METAR KBLI 171453Z 02005KT 10SM CLR 04/01 A3046 RMK AO2 SLP326 T00390011 53009
06:53
V
1 °C 10 mi - 010° 010° 3 kt METAR KBLI 171353Z 01003KT 10SM CLR 01/00 A3045 RMK AO2 SLP321 T00110000
05:53
V
1 °C 10 mi - 360° 360° 0 kt METAR KBLI 171253Z 00000KT 10SM CLR 01/M01 A3044 RMK AO2 SLP318 T00061006
04:53
V
1 °C 10 mi - 360° 360° 0 kt METAR KBLI 171153Z 00000KT 10SM CLR 01/00 A3044 RMK AO2 SLP315 T00110000 10039 20006 51009
03:53
V
2 °C 10 mi - 360° 360° 0 kt METAR KBLI 171053Z 00000KT 10SM CLR 02/01 A3043 RMK AO2 SLP313 T00220006
02:53
V
2 °C 10 mi - 020° 020° 3 kt METAR KBLI 170953Z 02003KT 10SM CLR 02/01 A3042 RMK AO2 SLP308 T00170011
01:53
V
2 °C 10 mi - 030° 030° 3 kt METAR KBLI 170853Z 03003KT 10SM CLR 02/01 A3041 RMK AO2 SLP307 T00170006 51009
00:53
V
2 °C 10 mi - 010° 010° 3 kt METAR KBLI 170753Z 01003KT 10SM CLR 02/00 A3040 RMK AO2 SLP304 T00170000 401110006

16 kwietnia 2024

Czas Kod Pogoda Temp. Widoczność Sufit Wiatr METAR/SPECI
23:53
V
3 °C 10 mi - 360° 360° 0 kt METAR KBLI 170653Z 00000KT 10SM CLR 03/00 A3039 RMK AO2 SLP301 T00330000
22:53
V
3 °C 10 mi - 360° 360° 0 kt METAR KBLI 170553Z 00000KT 10SM FEW095 03/M01 A3038 RMK AO2 SLP297 T00281006 10111 20028 51016
Zgłoś zmianę